Saltford, United Kingdom
Current Conditions -  °F | °C
As of 10:20 AM on Thursday 27 Nov 2014 (Local Time) from EGGD Reporting Station
Moderate Fog Moderate Fog  
Wind Chill:   Ceiling: Unl
Heat Index:   Visibility: 6mi
Dew Point:   Wind: 6mph
Humidity: 100%   Direction: 110°ESE
Pressure: 29.59"   Gusts: NA
Location:  51.4°N, 2.46°W
Report Text: EGGD 271020Z 11005KT 9999 2100E VCFG FEW015 06/06 Q1002
Loading
Personal Weather Stations






























Interactive Weather Map New forecast layout! Learn more

10-Day Weather Forecast

Advertisements
Track Severe Weather on mobile